Madera, Pennsylvania
Current Conditions -  °F | °C
As of 1:54 AM on Saturday 01 Nov 2014 (Local Time) from KFIG Reporting Station
Overcast Overcast  
Wind Chill: 34°   Ceiling: 6500
Heat Index: 38°   Visibility: 10mi
Dew Point: 36°   Wind: 5mph
Humidity: 93%   Direction: 20°NNE
Pressure: 29.88"   Gusts: NA
Location:  40.83°N, 78.43°W
Report Text: KFIG 010554Z AUTO 02004KT 10SM FEW048 BKN065 OVC090 03/02 A2988 RMK AO2 SLP127 60002 T00330022 10044 20033 55003
Loading
Personal Weather Stations






























Interactive Weather Map New forecast layout! Learn more

10-Day Weather Forecast

Advertisements
Track Severe Weather on mobile